Time;durP1;ratioP1;P1;durP2;ratioP2;P2;SDS_P1;SDS_P2;PMS_P1;PMS_P2;Temp;Humidity;BMP_temperature;BMP_pressure;BME280_temperature;BME280_humidity;BME280_pressure;Samples;Min_cycle;Max_cycle;Signal;HPM_P1;HPM_P2
2022/03/10 00:00:00;;;;;;;18.00;11.50;;;;;;;2.56;75.76;99923.91;105302;1270;62081;-75
2022/03/10 00:02:27;;;;;;;16.70;11.90;;;;;;;2.48;75.36;99929.34;105223;1271;62179;-75
2022/03/10 00:04:53;;;;;;;16.50;11.30;;;;;;;2.42;75.14;99933.13;105235;1271;62169;-76
2022/03/10 00:07:20;;;;;;;16.80;11.70;;;;;;;2.38;74.74;99935.11;105239;1270;62088;-76
2022/03/10 00:09:47;;;;;;;19.90;12.80;;;;;;;2.34;74.50;99937.13;105179;1270;62081;-75
2022/03/10 00:12:13;;;;;;;16.90;12.40;;;;;;;2.31;74.43;99941.75;105195;1271;62130;-75
2022/03/10 00:14:40;;;;;;;18.60;13.00;;;;;;;2.25;74.42;99942.20;105222;1271;62101;-76
2022/03/10 00:17:06;;;;;;;21.70;14.60;;;;;;;2.22;74.61;99948.21;105122;1270;62050;-76
2022/03/10 00:19:33;;;;;;;20.10;13.20;;;;;;;2.18;74.97;99950.23;105214;1271;62087;-75
2022/03/10 00:21:59;;;;;;;17.00;12.30;;;;;;;2.14;75.48;99945.89;105171;1271;62762;-74
2022/03/10 00:24:26;;;;;;;16.20;13.10;;;;;;;2.11;75.84;99943.50;105198;1271;62202;-76
2022/03/10 00:26:52;;;;;;;18.90;14.30;;;;;;;2.10;75.61;99953.16;105177;1270;62094;-76
2022/03/10 00:29:19;;;;;;;21.30;15.50;;;;;;;2.11;75.90;99953.49;105213;1270;62105;-76
2022/03/10 00:31:45;;;;;;;22.80;16.60;;;;;;;2.11;76.15;99957.70;105217;1271;62090;-76
2022/03/10 00:34:12;;;;;;;24.30;17.10;;;;;;;2.07;75.82;99954.08;105206;1269;62331;-76
2022/03/10 00:36:38;;;;;;;23.50;17.20;;;;;;;2.06;75.91;99960.23;105224;1271;62174;-75
2022/03/10 00:39:05;;;;;;;25.60;17.80;;;;;;;2.01;75.73;99961.88;105092;1271;62334;-76
2022/03/10 00:41:31;;;;;;;26.40;17.40;;;;;;;1.94;75.59;99962.35;105220;1271;62095;-75
2022/03/10 00:43:58;;;;;;;23.90;17.40;;;;;;;1.88;75.28;99964.73;105212;1271;62106;-75
2022/03/10 00:46:24;;;;;;;27.40;17.90;;;;;;;1.82;75.20;99973.59;105001;1271;73642;-75
2022/03/10 00:48:51;;;;;;;24.80;16.60;;;;;;;1.79;75.17;99971.54;105164;1270;62644;-75
2022/03/10 00:51:18;;;;;;;26.10;17.00;;;;;;;1.75;75.17;99972.98;105145;1271;62085;-75
2022/03/10 00:53:45;;;;;;;24.40;17.20;;;;;;;1.72;75.01;99973.21;104804;1270;497158;-77
2022/03/10 00:56:11;;;;;;;24.90;17.40;;;;;;;1.70;75.27;99981.12;105223;1271;69135;-75
2022/03/10 00:58:38;;;;;;;26.50;18.10;;;;;;;1.68;75.43;99983.96;105219;1270;72167;-76
2022/03/10 01:01:04;;;;;;;26.80;18.40;;;;;;;1.64;75.58;99980.69;105223;1271;62050;-75
2022/03/10 01:03:31;;;;;;;27.70;17.70;;;;;;;1.61;75.63;99984.95;105156;1270;62191;-75
2022/03/10 01:05:57;;;;;;;28.30;18.40;;;;;;;1.57;75.89;99985.17;105149;1270;62162;-75
2022/03/10 01:08:24;;;;;;;26.20;19.50;;;;;;;1.54;76.17;99989.41;105089;1270;62328;-75
2022/03/10 01:10:50;;;;;;;27.90;18.30;;;;;;;1.52;76.01;99987.35;105234;1271;62215;-75
2022/03/10 01:13:18;;;;;;;27.20;19.20;;;;;;;1.53;76.23;99992.24;105168;1270;62059;-75
2022/03/10 01:15:46;;;;;;;30.00;18.90;;;;;;;1.51;76.07;99992.79;105116;1270;62021;-74
2022/03/10 01:18:14;;;;;;;30.90;20.10;;;;;;;1.51;76.00;99995.95;105157;1271;77448;-75
2022/03/10 01:20:41;;;;;;;28.30;18.30;;;;;;;1.48;75.75;99995.10;105064;1270;68225;-75
2022/03/10 01:23:11;;;;;;;30.00;19.60;;;;;;;1.47;75.79;99998.29;105178;1271;74073;-75
2022/03/10 01:25:39;;;;;;;29.00;18.60;;;;;;;1.44;75.71;100003.39;105193;1267;62184;-75
2022/03/10 01:28:06;;;;;;;27.30;17.90;;;;;;;1.38;75.89;100004.17;105243;1270;62073;-75
2022/03/10 01:30:32;;;;;;;30.30;18.10;;;;;;;1.33;75.84;100010.55;105202;1270;77096;-75
2022/03/10 01:32:59;;;;;;;25.10;16.50;;;;;;;1.26;76.01;100011.68;105183;1270;69298;-76
2022/03/10 01:35:26;;;;;;;27.10;18.20;;;;;;;1.23;76.17;100009.80;105219;1270;74104;-76
2022/03/10 01:37:52;;;;;;;28.30;19.60;;;;;;;1.20;76.18;100009.30;105013;1272;62097;-76
2022/03/10 01:40:19;;;;;;;27.10;19.40;;;;;;;1.18;76.20;100009.85;105230;1270;62058;-74
2022/03/10 01:42:47;;;;;;;29.20;20.10;;;;;;;1.16;76.31;100011.63;105286;1270;77699;-75
2022/03/10 01:45:16;;;;;;;26.80;18.50;;;;;;;1.11;76.25;100014.65;105192;1270;70412;-75
2022/03/10 01:47:43;;;;;;;30.30;19.80;;;;;;;1.07;76.23;100011.21;105251;1270;72297;-76
2022/03/10 01:50:12;;;;;;;29.30;18.80;;;;;;;1.04;76.35;100013.02;105252;1270;62075;-75
2022/03/10 01:52:40;;;;;;;;;;;;;;;1.02;76.51;100012.16;105336;1270;62061;-77
2022/03/10 01:55:07;;;;;;;28.80;18.00;;;;;;;0.99;76.53;100021.29;105249;1270;75593;-77
2022/03/10 01:57:35;;;;;;;27.00;18.80;;;;;;;0.98;76.64;100026.55;105130;1271;68294;-76
2022/03/10 02:00:03;;;;;;;24.70;17.50;;;;;;;0.98;76.76;100025.67;105352;1270;73191;-77
2022/03/10 02:02:29;;;;;;;27.00;18.00;;;;;;;0.99;76.76;100026.70;105248;1269;62183;-76
2022/03/10 02:04:56;;;;;;;30.90;19.30;;;;;;;1.01;76.76;100025.30;105033;1271;62390;-76
2022/03/10 02:10:16;;;;;;;31.10;18.50;;;;;;;1.00;76.94;100030.20;105257;1270;69808;-76
2022/03/10 02:12:45;;;;;;;30.00;19.40;;;;;;;0.97;76.85;100032.33;105103;1270;73636;-77
2022/03/10 02:18:00;;;;;;;33.20;21.00;;;;;;;0.92;76.88;100029.06;105048;1270;62144;-76
2022/03/10 02:20:27;;;;;;;28.60;19.70;;;;;;;0.91;76.95;100031.19;105244;1270;77128;-76
2022/03/10 02:22:54;;;;;;;29.10;18.50;;;;;;;0.90;76.85;100039.41;105472;1270;69209;-77
2022/03/10 02:25:22;;;;;;;23.30;16.70;;;;;;;0.91;76.72;100039.73;105206;1270;74435;-76
2022/03/10 02:27:54;;;;;;;23.40;15.80;;;;;;;0.94;76.48;100041.47;105242;1270;62139;-76
2022/03/10 02:30:22;;;;;;;19.90;13.40;;;;;;;0.96;75.23;100049.50;105308;1270;62103;-75
2022/03/10 02:32:49;;;;;;;19.40;12.60;;;;;;;0.94;74.94;100054.08;105509;1270;77337;-74
2022/03/10 02:35:16;;;;;;;21.40;13.60;;;;;;;0.91;74.64;100054.95;105069;1270;70364;-75
2022/03/10 02:37:44;;;;;;;19.80;14.40;;;;;;;0.90;74.57;100061.29;105048;1271;74164;-76
2022/03/10 02:40:12;;;;;;;24.70;15.80;;;;;;;0.87;74.25;100061.31;105151;1270;62095;-75
2022/03/10 02:42:39;;;;;;;21.20;14.80;;;;;;;0.85;73.94;100064.13;105226;1270;62072;-76
2022/03/10 02:45:07;;;;;;;21.10;13.70;;;;;;;0.84;73.71;100067.46;105200;1270;75841;-75
2022/03/10 02:47:34;;;;;;;16.90;11.70;;;;;;;0.81;73.31;100064.88;104891;1271;67142;-75
2022/03/10 02:50:04;;;;;;;16.60;10.80;;;;;;;0.79;73.02;100072.23;105105;1271;71310;-75
2022/03/10 02:52:30;;;;;;;18.20;12.50;;;;;;;0.79;72.96;100073.29;105199;1270;62155;-75
2022/03/10 02:54:57;;;;;;;18.50;12.50;;;;;;;0.80;73.06;100076.95;105126;1270;61987;-76
2022/03/10 02:57:24;;;;;;;17.70;11.60;;;;;;;0.84;73.02;100081.64;105107;1270;77126;-76
2022/03/10 02:59:50;;;;;;;19.30;12.60;;;;;;;0.86;72.89;100080.91;105230;1270;69419;-76
2022/03/10 03:02:16;;;;;;;19.10;11.90;;;;;;;0.88;72.92;100082.30;105184;1270;62129;-75
2022/03/10 03:04:43;;;;;;;17.30;11.80;;;;;;;0.88;72.71;100087.89;105176;1270;62443;-75
2022/03/10 03:07:10;;;;;;;16.50;11.80;;;;;;;0.89;72.63;100092.95;105191;1270;62173;-77
2022/03/10 03:09:37;;;;;;;19.70;13.00;;;;;;;0.86;72.27;100095.79;105233;1270;76986;-76
2022/03/10 03:12:04;;;;;;;19.00;13.30;;;;;;;0.81;72.35;100103.53;105201;1268;62018;-76
2022/03/10 03:14:30;;;;;;;19.10;13.90;;;;;;;0.78;72.45;100097.79;105041;1271;73608;-76
2022/03/10 03:16:57;;;;;;;22.10;15.10;;;;;;;0.76;72.58;100098.15;105176;1270;61944;-76
2022/03/10 03:19:25;;;;;;;19.80;12.40;;;;;;;0.75;72.48;100105.52;105507;1270;62098;-75
2022/03/10 03:21:51;;;;;;;20.90;12.80;;;;;;;0.74;72.58;100104.13;105195;1270;76155;-76
2022/03/10 03:24:19;;;;;;;16.00;11.10;;;;;;;0.74;72.48;100105.52;105206;1270;69157;-76
2022/03/10 03:26:45;;;;;;;17.10;13.20;;;;;;;0.71;72.37;100107.48;105288;1270;73169;-75
2022/03/10 03:29:12;;;;;;;17.70;13.40;;;;;;;0.69;72.60;100105.40;105258;1270;62174;-77
2022/03/10 03:31:39;;;;;;;16.50;12.80;;;;;;;0.66;72.45;100113.13;105281;1270;62051;-77
2022/03/10 03:34:10;;;;;;;18.30;12.60;;;;;;;0.63;72.51;100117.85;105154;1270;76922;-75
2022/03/10 03:36:41;;;;;;;17.20;11.50;;;;;;;0.60;72.45;100120.33;105255;1270;70448;-75
2022/03/10 03:39:09;;;;;;;16.10;12.00;;;;;;;0.57;72.47;100122.11;104676;1270;1003427;-76
2022/03/10 03:41:36;;;;;;;18.20;12.50;;;;;;;0.55;72.65;100126.48;105240;1270;62178;-77
2022/03/10 03:44:06;;;;;;;17.90;12.40;;;;;;;0.51;72.47;100129.68;105351;1270;62099;-76
2022/03/10 03:46:33;;;;;;;;;;;;;;;0.48;72.58;100135.47;105047;1271;74161;-77
2022/03/10 03:48:59;;;;;;;15.00;11.80;;;;;;;0.45;72.61;100136.00;105181;1270;68623;-77
2022/03/10 03:51:26;;;;;;;16.10;10.90;;;;;;;0.44;72.69;100140.56;105042;1270;62288;-77
2022/03/10 03:53:53;;;;;;;15.50;11.30;;;;;;;0.43;72.82;100143.36;105228;1270;62197;-77
2022/03/10 03:56:20;;;;;;;15.50;11.50;;;;;;;0.43;72.89;100144.60;105201;1270;62165;-77
2022/03/10 03:58:46;;;;;;;14.00;11.20;;;;;;;0.41;72.90;100145.66;105298;1270;77248;-76
2022/03/10 04:01:12;;;;;;;15.90;10.60;;;;;;;0.39;72.93;100151.43;105193;1270;62503;-76
2022/03/10 04:03:39;;;;;;;14.20;10.80;;;;;;;0.34;72.45;100161.44;105234;1270;62249;-76
2022/03/10 04:06:06;;;;;;;12.60;9.00;;;;;;;0.29;72.22;100164.10;105164;1270;62203;-75
2022/03/10 04:08:33;;;;;;;10.70;7.20;;;;;;;0.23;71.78;100169.73;105309;1270;61976;-76
2022/03/10 04:11:00;;;;;;;8.70;6.50;;;;;;;0.18;70.08;100184.59;105693;1270;76062;-75
2022/03/10 04:13:27;;;;;;;7.40;5.50;;;;;;;0.12;69.85;100179.40;106287;1268;67965;-75
2022/03/10 04:15:53;;;;;;;7.10;5.80;;;;;;;0.08;68.57;100183.95;105906;1270;62251;-74
2022/03/10 04:18:20;;;;;;;7.60;5.90;;;;;;;0.04;68.35;100184.15;105108;1271;62212;-75
2022/03/10 04:20:47;;;;;;;8.20;5.50;;;;;;;-0.02;68.08;100191.87;105266;1270;61967;-76
2022/03/10 04:23:14;;;;;;;7.80;5.70;;;;;;;-0.07;68.32;100195.73;105307;1270;75483;-76
2022/03/10 04:25:42;;;;;;;6.20;4.90;;;;;;;-0.11;67.69;100200.81;105336;1270;68702;-76
2022/03/10 04:28:09;;;;;;;6.60;4.50;;;;;;;-0.17;67.54;100205.21;105273;1270;74539;-75
2022/03/10 04:30:38;;;;;;;7.10;5.00;;;;;;;-0.25;67.12;100214.15;105314;1270;62185;-74
2022/03/10 04:33:05;;;;;;;6.20;4.70;;;;;;;-0.32;67.56;100215.04;105467;1270;61942;-75
2022/03/10 04:35:31;;;;;;;6.90;5.40;;;;;;;-0.39;67.80;100219.61;105285;1270;75568;-74
2022/03/10 04:37:57;;;;;;;9.50;6.30;;;;;;;-0.48;68.22;100227.48;105259;1270;62185;-75
2022/03/10 04:40:24;;;;;;;8.70;5.40;;;;;;;-0.57;68.75;100230.99;105264;1270;62021;-74
2022/03/10 04:42:51;;;;;;;10.20;6.50;;;;;;;-0.68;69.32;100230.31;105308;1270;62229;-76
2022/03/10 04:45:18;;;;;;;7.30;6.40;;;;;;;-0.77;69.90;100234.51;105447;1269;62032;-75
2022/03/10 04:47:45;;;;;;;7.90;6.70;;;;;;;-0.85;70.29;100240.10;105629;1271;74291;-73
2022/03/10 04:50:13;;;;;;;10.60;7.30;;;;;;;-0.92;70.73;100244.29;105736;1270;68681;-74
2022/03/10 04:52:40;;;;;;;9.10;7.00;;;;;;;-1.00;70.78;100244.64;105972;1270;71678;-75
2022/03/10 04:55:10;;;;;;;9.30;7.30;;;;;;;-1.06;71.36;100245.16;106237;1270;62096;-75
2022/03/10 04:57:37;;;;;;;10.50;7.80;;;;;;;-1.15;71.49;100246.04;108491;1270;60770;-74
2022/03/10 05:00:08;;;;;;;8.80;7.40;;;;;;;-1.22;72.11;100254.40;108548;1270;74148;-73
2022/03/10 05:02:38;;;;;;;11.50;8.30;;;;;;;-1.28;72.16;100261.19;108446;1270;69191;-73
2022/03/10 05:05:06;;;;;;;10.30;8.10;;;;;;;-1.33;72.42;100260.30;108087;1270;73373;-74
2022/03/10 05:07:34;;;;;;;9.80;7.50;;;;;;;-1.36;73.31;100263.95;105617;1270;62076;-74
2022/03/10 05:10:01;;;;;;;13.50;8.40;;;;;;;-1.37;74.11;100273.89;105297;1270;62184;-75
2022/03/10 05:12:27;;;;;;;10.70;8.30;;;;;;;-1.40;73.98;100269.17;105299;1270;74118;-75
2022/03/10 05:14:54;;;;;;;11.30;8.30;;;;;;;-1.44;74.02;100268.48;105193;1270;69726;-75
2022/03/10 05:17:23;;;;;;;10.50;8.10;;;;;;;-1.48;74.47;100273.88;105294;1270;62177;-77
2022/03/10 05:19:52;;;;;;;11.00;7.30;;;;;;;-1.53;74.54;100274.38;105214;1269;62137;-74
2022/03/10 05:22:19;;;;;;;13.40;9.60;;;;;;;-1.57;75.49;100274.71;105331;1270;62177;-75
2022/03/10 05:24:46;;;;;;;11.10;8.40;;;;;;;-1.60;75.83;100280.98;105017;1270;76133;-76
2022/03/10 05:27:13;;;;;;;12.10;8.20;;;;;;;-1.61;75.88;100287.42;105734;1270;70127;-75
2022/03/10 05:29:40;;;;;;;11.60;8.70;;;;;;;-1.61;75.63;100287.77;105213;1270;73219;-75
2022/03/10 05:32:10;;;;;;;11.50;8.10;;;;;;;-1.59;75.95;100296.67;105275;1269;62257;-75
2022/03/10 05:34:37;;;;;;;;;;;;;;;-1.51;75.90;100300.52;105303;1270;62056;-77
2022/03/10 05:37:03;;;;;;;13.00;9.30;;;;;;;-1.46;75.70;100303.51;105232;1270;62048;-75
2022/03/10 05:39:30;;;;;;;11.50;8.60;;;;;;;-1.41;75.36;100308.75;105251;1270;62165;-76
2022/03/10 05:41:56;;;;;;;13.90;9.00;;;;;;;-1.36;75.29;100309.47;105236;1270;62196;-76
2022/03/10 05:44:23;;;;;;;15.40;9.40;;;;;;;-1.31;74.96;100317.84;105078;1270;62096;-75
2022/03/10 05:46:49;;;;;;;10.00;8.90;;;;;;;-1.19;74.70;100316.65;105291;1270;62043;-75
2022/03/10 05:49:16;;;;;;;13.20;8.80;;;;;;;-1.15;74.46;100323.80;105266;1270;62072;-75
2022/03/10 05:51:42;;;;;;;14.40;10.00;;;;;;;-1.24;74.54;100328.31;105210;1270;62070;-74
2022/03/10 05:54:09;;;;;;;12.70;8.90;;;;;;;-1.27;74.41;100327.44;105237;1270;73451;-75
2022/03/10 05:56:36;;;;;;;13.20;9.80;;;;;;;-1.31;74.41;100334.94;105152;1270;62491;-76
2022/03/10 05:59:02;;;;;;;11.60;9.20;;;;;;;-1.41;74.37;100341.17;105247;1270;62174;-77
2022/03/10 06:01:29;;;;;;;15.50;9.90;;;;;;;-1.46;74.20;100342.55;105247;1270;62124;-75
2022/03/10 06:03:55;;;;;;;19.30;9.40;;;;;;;-1.47;74.20;100342.20;105200;1270;62053;-74
2022/03/10 06:06:22;;;;;;;14.50;9.60;;;;;;;-1.51;74.14;100346.88;105226;1270;62042;-75
2022/03/10 06:08:48;;;;;;;15.50;9.50;;;;;;;-1.53;74.06;100348.62;105243;1270;62127;-75
2022/03/10 06:11:14;;;;;;;15.70;9.90;;;;;;;-1.49;74.09;100349.33;105213;1270;62070;-75
2022/03/10 06:13:41;;;;;;;12.30;9.10;;;;;;;-1.47;74.08;100351.79;105189;1270;62187;-77
2022/03/10 06:16:07;;;;;;;13.00;8.50;;;;;;;-1.46;74.15;100354.41;105254;1270;61978;-75
2022/03/10 06:18:34;;;;;;;15.80;10.30;;;;;;;-1.45;74.03;100366.78;105231;1270;62138;-77
2022/03/10 06:21:00;;;;;;;16.60;9.50;;;;;;;-1.42;73.91;100369.59;105183;1270;62346;-76
2022/03/10 06:23:27;;;;;;;13.00;9.20;;;;;;;-1.40;73.74;100370.46;105154;1269;62170;-75
2022/03/10 06:25:54;;;;;;;11.90;8.60;;;;;;;-1.34;73.65;100373.63;105208;1270;75423;-76
2022/03/10 06:28:20;;;;;;;13.50;8.60;;;;;;;-1.31;72.93;100377.13;105264;1270;62063;-75
2022/03/10 06:30:47;;;;;;;12.20;9.30;;;;;;;-1.29;72.57;100384.11;105236;1270;62488;-75
2022/03/10 06:33:13;;;;;;;11.90;8.40;;;;;;;-1.27;72.39;100389.16;105220;1270;62104;-75
2022/03/10 06:35:40;;;;;;;14.70;9.30;;;;;;;-1.25;71.40;100392.48;105246;1270;61960;-74
2022/03/10 06:38:06;;;;;;;15.80;9.20;;;;;;;-1.25;71.30;100393.19;105216;1270;62056;-76
2022/03/10 06:40:33;;;;;;;12.30;8.30;;;;;;;-1.23;71.30;100395.10;104986;1271;62160;-75
2022/03/10 06:43:00;;;;;;;13.40;8.80;;;;;;;-1.18;70.65;100395.29;105201;1270;62070;-73
2022/03/10 06:45:26;;;;;;;12.30;9.10;;;;;;;-1.10;70.40;100395.33;105261;1270;62154;-76
2022/03/10 06:47:52;;;;;;;12.00;9.00;;;;;;;-1.01;70.55;100401.63;105235;1270;62258;-75
2022/03/10 06:50:19;;;;;;;13.30;9.70;;;;;;;-0.98;69.96;100408.09;105222;1270;62172;-75
2022/03/10 06:52:46;;;;;;;15.00;10.20;;;;;;;-1.00;70.25;100407.21;105136;1270;62141;-76
2022/03/10 06:55:12;;;;;;;12.50;8.30;;;;;;;-0.95;70.53;100414.04;105239;1270;62205;-76
2022/03/10 06:57:38;;;;;;;13.90;7.60;;;;;;;-0.88;69.70;100417.18;105228;1270;62069;-75
2022/03/10 07:00:07;;;;;;;12.60;7.70;;;;;;;-0.90;68.72;100417.17;105230;1270;62152;-75
2022/03/10 07:02:34;;;;;;;10.90;7.70;;;;;;;-0.95;68.31;100418.56;105041;1270;77360;-76
2022/03/10 07:05:00;;;;;;;14.30;7.80;;;;;;;-1.03;68.22;100429.69;105277;1270;62066;-75
2022/03/10 07:07:27;;;;;;;13.70;8.20;;;;;;;-1.12;68.16;100432.64;105240;1270;62060;-77
2022/03/10 07:09:53;;;;;;;15.40;8.30;;;;;;;-1.18;67.80;100433.84;105318;1270;62147;-75
2022/03/10 07:12:19;;;;;;;10.10;8.10;;;;;;;-1.28;67.57;100435.70;105297;1270;62081;-76
2022/03/10 07:14:46;;;;;;;12.30;8.20;;;;;;;-1.35;67.92;100437.95;105223;1270;62077;-75
2022/03/10 07:17:12;;;;;;;11.60;7.60;;;;;;;-1.40;67.72;100444.02;105241;1270;62192;-75
2022/03/10 07:19:39;;;;;;;12.40;8.10;;;;;;;-1.41;67.42;100444.54;105237;1270;62197;-73
2022/03/10 07:22:05;;;;;;;13.10;9.00;;;;;;;-1.37;67.11;100447.70;105213;1269;62101;-74
2022/03/10 07:24:32;;;;;;;13.90;7.60;;;;;;;-1.26;67.38;100449.33;105286;1269;62171;-74
2022/03/10 07:26:59;;;;;;;10.10;6.70;;;;;;;-1.16;66.78;100452.15;105274;1270;62240;-74
2022/03/10 07:29:26;;;;;;;9.50;7.00;;;;;;;-1.19;65.01;100455.45;105401;1270;62082;-73
2022/03/10 07:31:52;;;;;;;10.10;6.70;;;;;;;-1.26;64.77;100462.40;105223;1270;73476;-73
2022/03/10 07:34:19;;;;;;;11.00;7.60;;;;;;;-1.30;64.03;100464.11;105223;1269;62191;-77
2022/03/10 07:36:45;;;;;;;8.60;6.50;;;;;;;-1.30;64.54;100464.98;105263;1270;62164;-76
2022/03/10 07:39:11;;;;;;;9.00;6.60;;;;;;;-1.28;64.59;100469.19;105226;1270;62171;-76
2022/03/10 07:41:38;;;;;;;10.20;6.50;;;;;;;-1.22;63.84;100468.35;105209;1270;62053;-76
2022/03/10 07:44:05;;;;;;;12.20;6.00;;;;;;;-1.13;63.95;100469.44;105266;1270;72219;-73
2022/03/10 07:46:31;;;;;;;8.40;6.00;;;;;;;-1.01;62.84;100475.93;105291;1270;62343;-75
2022/03/10 07:48:58;;;;;;;9.90;5.80;;;;;;;-0.94;61.80;100473.70;105306;1270;62396;-73
2022/03/10 07:51:24;;;;;;;7.00;5.30;;;;;;;-0.89;60.41;100479.45;105224;1270;61958;-75
2022/03/10 07:53:51;;;;;;;10.50;5.80;;;;;;;-0.84;60.88;100479.48;105272;1270;61971;-75
2022/03/10 07:56:17;;;;;;;9.30;6.20;;;;;;;-0.74;60.78;100477.94;105253;1270;61973;-75
2022/03/10 07:58:44;;;;;;;8.30;5.10;;;;;;;-0.63;60.35;100481.30;105259;1270;62098;-74
2022/03/10 08:01:10;;;;;;;9.50;5.40;;;;;;;-0.58;58.61;100481.30;105271;1270;62152;-75
2022/03/10 08:03:38;;;;;;;7.90;5.20;;;;;;;-0.59;58.01;100477.11;105285;1270;62171;-75
2022/03/10 08:06:05;;;;;;;8.20;5.90;;;;;;;-0.59;58.13;100485.49;105022;1270;68928;-75
2022/03/10 08:08:32;;;;;;;6.90;5.10;;;;;;;-0.58;58.25;100489.69;105369;1270;74640;-76
2022/03/10 08:10:59;;;;;;;10.80;5.80;;;;;;;-0.56;56.94;100484.96;105315;1270;62102;-75
2022/03/10 08:13:26;;;;;;;8.10;5.60;;;;;;;-0.53;57.34;100491.26;105321;1270;62149;-74
2022/03/10 08:15:53;;;;;;;9.10;5.10;;;;;;;-0.49;56.95;100491.09;105352;1270;75870;-73
2022/03/10 08:18:20;;;;;;;6.70;5.30;;;;;;;-0.45;57.38;100488.30;105401;1268;70185;-73
2022/03/10 08:20:47;;;;;;;8.90;6.70;;;;;;;-0.41;56.83;100492.34;105027;1270;73106;-74
2022/03/10 08:23:13;;;;;;;10.10;5.50;;;;;;;-0.37;57.41;100492.69;105346;1270;62066;-74
2022/03/10 08:25:40;;;;;;;7.70;6.20;;;;;;;-0.29;57.69;100487.27;105730;1270;62127;-75
2022/03/10 08:28:08;;;;;;;10.90;7.20;;;;;;;-0.21;57.88;100479.78;106336;1270;62037;-75
2022/03/10 08:30:35;;;;;;;8.70;6.40;;;;;;;-0.13;57.06;100483.98;105917;1270;69418;-75
2022/03/10 08:33:01;;;;;;;9.30;6.80;;;;;;;-0.08;56.45;100480.83;105311;1270;73454;-75
2022/03/10 08:35:28;;;;;;;7.30;5.00;;;;;;;-0.09;55.59;100482.75;105329;1270;62079;-75
2022/03/10 08:37:54;;;;;;;8.90;6.50;;;;;;;-0.08;56.01;100479.62;105362;1270;62057;-76
2022/03/10 08:40:21;;;;;;;7.60;5.70;;;;;;;-0.01;56.30;100481.00;105335;1270;76960;-75
2022/03/10 08:42:49;;;;;;;7.50;5.90;;;;;;;0.08;56.18;100483.98;105127;1270;67590;-75
2022/03/10 08:45:16;;;;;;;7.50;5.50;;;;;;;0.16;56.20;100484.67;105050;1271;73119;-75
2022/03/10 08:47:44;;;;;;;7.50;5.40;;;;;;;0.29;55.52;100483.61;105199;1271;62232;-75
2022/03/10 08:50:11;;;;;;;6.40;5.10;;;;;;;0.37;54.14;100491.47;105468;1270;62083;-74
2022/03/10 08:52:39;;;;;;;9.40;5.40;;;;;;;0.30;53.46;100492.88;105436;1269;76789;-76
2022/03/10 08:55:06;;;;;;;6.00;5.30;;;;;;;0.27;52.92;100490.61;105330;1269;69120;-77
2022/03/10 08:57:34;;;;;;;8.30;5.30;;;;;;;0.28;53.65;100492.89;105508;1270;73402;-74
2022/03/10 09:00:00;;;;;;;8.50;5.20;;;;;;;0.37;53.87;100490.95;105488;1270;61992;-74
2022/03/10 09:02:27;;;;;;;10.40;6.80;;;;;;;0.48;53.69;100495.30;105295;1270;62154;-74
2022/03/10 09:04:53;;;;;;;8.00;5.20;;;;;;;0.57;53.15;100495.12;105277;1270;62172;-75
2022/03/10 09:07:19;;;;;;;6.20;5.10;;;;;;;0.60;51.70;100498.23;105334;1270;62070;-74
2022/03/10 09:09:46;;;;;;;7.90;5.70;;;;;;;0.56;52.20;100500.02;105156;1270;62057;-74
2022/03/10 09:12:13;;;;;;;6.50;4.70;;;;;;;0.58;51.78;100498.44;105322;1270;62220;-74
2022/03/10 09:14:40;;;;;;;6.50;4.20;;;;;;;0.54;51.41;100499.13;105341;1270;62046;-75
2022/03/10 09:17:06;;;;;;;8.00;6.90;;;;;;;0.54;52.18;100498.08;105321;1270;62028;-75
2022/03/10 09:19:33;;;;;;;6.90;5.70;;;;;;;0.65;51.25;100500.69;105329;1270;62040;-74
2022/03/10 09:22:01;;;;;;;6.70;5.20;;;;;;;0.70;51.29;100504.71;105304;1270;72592;-75
2022/03/10 09:24:30;;;;;;;7.70;6.00;;;;;;;0.73;50.91;100503.64;105329;1270;62060;-76
2022/03/10 09:26:57;;;;;;;7.40;5.10;;;;;;;0.72;51.17;100502.60;105446;1269;62015;-74
2022/03/10 09:29:23;;;;;;;9.40;7.10;;;;;;;0.78;50.73;100501.69;105354;1270;76909;-74
2022/03/10 09:31:50;;;;;;;8.60;5.90;;;;;;;0.83;50.47;100505.19;105257;1271;62434;-77
2022/03/10 09:34:16;;;;;;;6.40;4.30;;;;;;;0.85;48.62;100513.05;105597;1270;62010;-75
2022/03/10 09:36:42;;;;;;;8.90;4.70;;;;;;;0.79;49.74;100514.98;105400;1269;62096;-76
2022/03/10 09:39:09;;;;;;;7.00;6.00;;;;;;;0.81;49.60;100510.96;105413;1270;62184;-76
2022/03/10 09:41:38;;;;;;;7.60;5.80;;;;;;;0.85;49.36;100509.90;105428;1270;77668;-76
2022/03/10 09:44:13;;;;;;;5.40;4.20;;;;;;;0.91;49.79;100514.78;105444;1270;70197;-77
2022/03/10 09:46:42;;;;;;;6.80;5.20;;;;;;;0.93;48.63;100512.68;105449;1270;73615;-83
2022/03/10 09:49:09;;;;;;;6.70;4.50;;;;;;;0.93;48.15;100516.34;105760;1270;61326;-84
2022/03/10 09:51:36;;;;;;;7.20;5.70;;;;;;;0.97;48.21;100509.87;105904;1270;62068;-86
2022/03/10 09:54:03;;;;;;;6.00;4.80;;;;;;;1.09;48.73;100509.66;106299;1270;74130;-81
2022/03/10 09:56:30;;;;;;;5.00;4.10;;;;;;;1.22;48.64;100516.26;105585;1270;70032;-78
2022/03/10 09:58:57;;;;;;;4.80;4.10;;;;;;;1.26;47.59;100517.11;105379;1271;74390;-76
2022/03/10 10:01:24;;;;;;;7.90;5.50;;;;;;;1.25;47.52;100518.69;105339;1270;62075;-76
2022/03/10 10:03:50;;;;;;;8.70;5.70;;;;;;;1.28;48.15;100513.93;105393;1270;61983;-74
2022/03/10 10:06:17;;;;;;;6.10;4.20;;;;;;;1.36;47.76;100515.65;105287;1270;62197;-74
2022/03/10 10:08:54;;;;;;;6.60;4.40;;;;;;;1.35;47.57;100516.02;105298;1270;70141;-74
2022/03/10 10:11:33;;;;;;;6.70;5.00;;;;;;;1.36;47.30;100516.00;105276;1270;74550;-75
2022/03/10 10:14:00;;;;;;;6.00;4.50;;;;;;;1.40;46.74;100521.23;105319;1270;62404;-73
2022/03/10 10:16:27;;;;;;;5.50;4.40;;;;;;;1.31;46.45;100521.45;105628;1270;61940;-74
2022/03/10 10:18:56;;;;;;;6.50;4.60;;;;;;;1.28;46.15;100520.07;105280;1270;61955;-74
2022/03/10 10:21:24;;;;;;;6.00;4.40;;;;;;;1.26;46.40;100527.79;105445;1270;69166;-73
2022/03/10 10:23:52;;;;;;;7.60;5.20;;;;;;;1.31;47.00;100528.80;105385;1270;73756;-73
2022/03/10 10:26:26;;;;;;;8.50;5.20;;;;;;;1.40;46.80;100535.08;105357;1270;62194;-74
2022/03/10 10:28:53;;;;;;;5.60;4.70;;;;;;;1.48;46.24;100538.00;104885;1270;62237;-74
2022/03/10 10:31:24;;;;;;;6.40;4.60;;;;;;;1.42;45.67;100542.41;103836;1270;1005041;-74
2022/03/10 10:33:55;;;;;;;4.90;4.40;;;;;;;1.25;45.47;100545.47;105136;1270;68697;-74
2022/03/10 10:36:27;;;;;;;6.40;5.40;;;;;;;1.17;46.32;100545.33;105270;1270;73348;-74
2022/03/10 10:39:13;;;;;;;5.90;4.70;;;;;;;1.25;46.25;100547.23;105293;1270;62164;-74
2022/03/10 10:41:42;;;;;;;6.20;5.10;;;;;;;1.37;46.98;100538.41;105153;1270;62192;-74
2022/03/10 10:44:12;;;;;;;4.60;4.20;;;;;;;1.51;46.75;100538.34;105528;1270;75693;-76
2022/03/10 10:46:39;;;;;;;;;;;;;;;1.63;46.54;100531.98;105527;1270;69401;-74
2022/03/10 10:49:10;;;;;;;5.90;4.70;;;;;;;1.75;46.66;100529.97;105375;1270;73549;-74
2022/03/10 10:51:40;;;;;;;6.80;5.30;;;;;;;1.87;47.02;100530.06;105294;1268;62116;-74
2022/03/10 10:54:24;;;;;;;9.70;4.80;;;;;;;1.92;45.54;100531.96;105211;1270;62143;-74
2022/03/10 10:56:56;;;;;;;8.30;5.00;;;;;;;1.85;45.31;100529.38;105332;1269;76134;-74
2022/03/10 10:59:34;;;;;;;7.10;5.20;;;;;;;1.86;46.04;100528.84;105224;1271;67352;-74
2022/03/10 11:02:19;;;;;;;6.20;4.80;;;;;;;1.99;45.52;100531.91;105346;1269;74384;-74
2022/03/10 11:04:49;;;;;;;5.90;4.80;;;;;;;2.06;45.27;100529.58;105318;1270;62088;-73
2022/03/10 11:07:16;;;;;;;5.90;5.30;;;;;;;2.05;45.54;100533.09;105445;1270;62075;-75
2022/03/10 11:09:44;;;;;;;4.90;4.20;;;;;;;2.09;45.27;100532.02;105367;1270;77265;-75
2022/03/10 11:12:13;;;;;;;6.10;4.20;;;;;;;2.09;45.01;100532.88;105414;1270;68840;-74
2022/03/10 11:14:41;;;;;;;5.10;4.60;;;;;;;2.12;44.90;100535.15;105402;1270;73950;-73
2022/03/10 11:17:08;;;;;;;12.10;5.10;;;;;;;2.17;45.13;100529.84;105369;1270;62143;-73
2022/03/10 11:19:42;;;;;;;7.20;4.70;;;;;;;2.20;45.28;100534.73;105531;1270;62040;-74
2022/03/10 11:22:25;;;;;;;5.60;4.90;;;;;;;2.14;44.52;100536.89;105596;1270;75922;-74